Asotin, Washington
Current Conditions -  °F | °C
As of 9:56 PM on Wednesday 22 Oct 2014 (Local Time) from KLWS Reporting Station
Overcast Overcast  
Wind Chill: 64°   Ceiling: 8000
Heat Index: 64°   Visibility: 10mi
Dew Point: 36°   Wind: 5mph
Humidity: 35%   Direction: 220°SW
Pressure: 29.8"   Gusts: NA
Location:  46.34°N, 117.05°W
Report Text: KLWS 230456Z 22004KT 10SM SCT065 OVC080 18/02 A2980 RMK AO2 RAB39E50 SLP089 P0000 T01780022
Loading
Personal Weather Stations






























Interactive Weather Map
Tropical Storm Tracking
New forecast layout! Learn more

10-Day Weather Forecast

Advertisements
Track Severe Weather on mobile